createdAt,value
2017-04-17T00:00:30.939Z,19.97
2017-04-17T00:01:29.859Z,22.97
2017-04-17T00:02:28.816Z,21.17
2017-04-17T00:03:28.685Z,20.37
2017-04-17T00:04:27.591Z,20.90
2017-04-17T00:05:26.487Z,20.15
2017-04-17T00:06:26.147Z,18.88
2017-04-17T00:07:25.067Z,19.12
2017-04-17T00:08:23.994Z,21.92
2017-04-17T00:09:22.916Z,21.95
2017-04-17T00:10:22.572Z,23.62
2017-04-17T00:11:21.472Z,23.33
2017-04-17T00:12:20.399Z,24.28
2017-04-17T00:13:19.317Z,22.25
2017-04-17T00:14:18.220Z,22.23
2017-04-17T00:15:17.923Z,22.72
2017-04-17T00:16:16.826Z,25.73
2017-04-17T00:17:16.512Z,22.60
2017-04-17T00:18:15.420Z,27.15
2017-04-17T00:19:14.403Z,25.28
2017-04-17T00:20:13.295Z,25.85
2017-04-17T00:21:12.322Z,29.75
2017-04-17T00:22:11.295Z,30.65
2017-04-17T00:23:10.244Z,28.68
2017-04-17T00:24:09.125Z,31.27
2017-04-17T00:25:08.025Z,29.05
2017-04-17T00:26:06.919Z,30.22
2017-04-17T00:27:05.839Z,28.30
2017-04-17T00:28:04.740Z,28.95
2017-04-17T00:29:03.762Z,31.63
2017-04-17T00:30:02.651Z,29.80
2017-04-17T00:31:01.552Z,28.65
2017-04-17T00:32:00.463Z,29.56
2017-04-17T00:32:59.368Z,30.30
2017-04-17T00:33:58.281Z,29.32
2017-04-17T00:34:57.180Z,28.27
2017-04-17T00:35:56.092Z,29.22
2017-04-17T00:36:55.015Z,29.37
2017-04-17T00:37:53.970Z,30.73
2017-04-17T00:38:52.904Z,28.33
2017-04-17T00:39:52.548Z,32.20
2017-04-17T00:40:51.443Z,31.48
2017-04-17T00:41:50.340Z,26.20
2017-04-17T00:42:49.262Z,26.35
2017-04-17T00:43:48.168Z,28.48
2017-04-17T00:44:47.121Z,28.50
2017-04-17T00:45:46.767Z,26.83
2017-04-17T00:46:45.735Z,25.22
2017-04-17T00:47:44.631Z,25.35
2017-04-17T00:48:43.624Z,24.05
2017-04-17T00:49:42.509Z,25.38
2017-04-17T00:50:41.416Z,24.22
2017-04-17T00:51:41.056Z,26.87
2017-04-17T00:52:39.935Z,23.45
2017-04-17T00:53:38.835Z,24.50
2017-04-17T00:54:37.771Z,26.55
2017-04-17T00:55:36.671Z,24.48
2017-04-17T00:56:35.611Z,27.53
2017-04-17T00:57:35.263Z,23.05
2017-04-17T00:58:34.168Z,21.65
2017-04-17T00:59:33.075Z,22.40
2017-04-17T01:00:31.975Z,25.50
2017-04-17T01:01:30.885Z,23.00
2017-04-17T01:02:29.827Z,22.57
2017-04-17T01:03:28.723Z,22.37
2017-04-17T01:04:27.600Z,22.53
2017-04-17T01:05:26.503Z,22.50
2017-04-17T01:06:25.406Z,23.35
2017-04-17T01:07:24.286Z,28.37
2017-04-17T01:08:23.243Z,22.10
2017-04-17T01:09:22.173Z,24.53
2017-04-17T01:10:21.079Z,24.15
2017-04-17T01:11:20.016Z,26.52
2017-04-17T01:12:19.469Z,25.62
2017-04-17T01:13:18.376Z,29.22
2017-04-17T01:14:17.280Z,31.12
2017-04-17T01:15:16.191Z,26.90
2017-04-17T01:16:15.088Z,30.02
2017-04-17T01:17:13.991Z,28.33
2017-04-17T01:18:12.886Z,29.67
2017-04-17T01:19:11.813Z,29.65
2017-04-17T01:20:10.751Z,31.35
2017-04-17T01:21:09.628Z,29.17
2017-04-17T01:22:08.535Z,29.67
2017-04-17T01:23:07.424Z,28.63
2017-04-17T01:24:06.313Z,28.83
2017-04-17T01:25:05.215Z,30.33
2017-04-17T01:26:04.163Z,31.97
2017-04-17T01:27:03.099Z,29.57
2017-04-17T01:28:01.979Z,28.70
2017-04-17T01:29:00.885Z,29.20
2017-04-17T01:29:59.772Z,28.97
2017-04-17T01:30:58.664Z,31.20
2017-04-17T01:31:58.312Z,29.95
2017-04-17T01:32:57.204Z,28.57
2017-04-17T01:33:56.103Z,28.05
2017-04-17T01:34:55.005Z,29.17
2017-04-17T01:35:54.672Z,29.63
2017-04-17T01:36:53.563Z,27.57
2017-04-17T01:37:52.486Z,27.62
2017-04-17T01:38:51.417Z,29.17
2017-04-17T01:39:50.391Z,26.92
2017-04-17T01:40:49.291Z,28.20
2017-04-17T01:41:48.198Z,27.82
2017-04-17T01:42:47.859Z,27.32
2017-04-17T01:43:46.820Z,29.48
2017-04-17T01:44:45.727Z,27.00
2017-04-17T01:45:44.607Z,25.93
2017-04-17T01:46:43.488Z,27.85
2017-04-17T01:47:42.420Z,28.52
2017-04-17T01:48:41.324Z,27.43
2017-04-17T01:49:40.250Z,32.53
2017-04-17T01:50:39.160Z,27.67
2017-04-17T01:51:38.037Z,29.22
2017-04-17T01:52:36.931Z,25.90
2017-04-17T01:53:35.836Z,27.68
2017-04-17T01:54:34.755Z,26.95
2017-04-17T01:55:34.416Z,26.18
2017-04-17T01:56:33.313Z,28.23
2017-04-17T01:57:32.202Z,26.22
2017-04-17T01:58:31.111Z,25.13
2017-04-17T01:59:30.006Z,26.73
2017-04-17T02:00:28.920Z,29.16
2017-04-17T02:01:27.834Z,29.48
2017-04-17T02:02:26.725Z,24.77
2017-04-17T02:03:26.408Z,31.10
2017-04-17T02:04:25.295Z,28.55
2017-04-17T02:05:24.289Z,26.52
2017-04-17T02:06:24.095Z,28.00
2017-04-17T02:07:23.767Z,25.48
2017-04-17T02:08:22.695Z,25.87
2017-04-17T02:09:21.601Z,25.43
2017-04-17T02:10:20.494Z,24.00
2017-04-17T02:11:19.394Z,24.22
2017-04-17T02:12:19.068Z,24.52
2017-04-17T02:13:18.056Z,24.50
2017-04-17T02:14:16.994Z,23.65
2017-04-17T02:15:15.919Z,23.13
2017-04-17T02:16:15.853Z,23.12
2017-04-17T02:17:15.511Z,24.20
2017-04-17T02:18:14.437Z,23.37
2017-04-17T02:19:14.155Z,20.62
2017-04-17T02:20:13.063Z,24.87
2017-04-17T02:21:11.971Z,25.72
2017-04-17T02:22:10.850Z,22.33
2017-04-17T02:23:09.768Z,21.60
2017-04-17T02:24:08.699Z,25.70
2017-04-17T02:25:07.631Z,25.82
2017-04-17T02:26:06.557Z,23.67
2017-04-17T02:27:05.452Z,24.12
2017-04-17T02:28:04.359Z,25.97
2017-04-17T02:29:03.255Z,24.45
2017-04-17T02:30:02.152Z,23.00
2017-04-17T02:31:01.107Z,23.90
2017-04-17T02:32:00.775Z,22.23
2017-04-17T02:32:59.688Z,22.03
2017-04-17T02:33:58.971Z,23.97
2017-04-17T02:34:58.595Z,23.80
2017-04-17T02:35:57.500Z,21.48
2017-04-17T02:36:56.425Z,23.48
2017-04-17T02:37:55.347Z,24.42
2017-04-17T02:38:54.277Z,23.67
2017-04-17T02:39:53.179Z,25.08
2017-04-17T02:40:52.832Z,24.67
2017-04-17T02:41:51.731Z,24.37
2017-04-17T02:42:50.653Z,24.77
2017-04-17T02:43:49.543Z,24.02
2017-04-17T02:44:48.452Z,26.85
2017-04-17T02:45:47.335Z,23.40
2017-04-17T02:46:46.247Z,23.82
2017-04-17T02:47:45.168Z,24.52
2017-04-17T02:48:44.101Z,26.27
2017-04-17T02:49:43.028Z,27.70
2017-04-17T02:50:41.951Z,27.45
2017-04-17T02:51:40.848Z,28.37
2017-04-17T02:52:39.754Z,27.27
2017-04-17T02:53:38.680Z,28.72
2017-04-17T02:54:37.645Z,27.82
2017-04-17T02:55:36.543Z,27.64
2017-04-17T02:56:35.604Z,27.47
2017-04-17T02:57:34.511Z,25.33
2017-04-17T02:58:33.424Z,29.05
2017-04-17T02:59:32.350Z,27.20
2017-04-17T03:00:31.301Z,26.30
2017-04-17T03:01:30.958Z,30.87
2017-04-17T03:02:29.887Z,26.57
2017-04-17T03:03:28.795Z,25.20
2017-04-17T03:04:27.700Z,25.38
2017-04-17T03:05:26.651Z,26.05
2017-04-17T03:06:25.661Z,25.93
2017-04-17T03:07:24.627Z,27.28
2017-04-17T03:08:23.524Z,25.58
2017-04-17T03:09:22.431Z,26.05
2017-04-17T03:10:22.055Z,28.08
2017-04-17T03:11:22.105Z,26.07
2017-04-17T03:12:21.047Z,27.92
2017-04-17T03:13:19.973Z,27.67
2017-04-17T03:14:18.909Z,28.07
2017-04-17T03:15:17.827Z,26.50
2017-04-17T03:16:16.790Z,25.08
2017-04-17T03:17:15.711Z,25.35
2017-04-17T03:18:14.651Z,27.73
2017-04-17T03:19:13.555Z,24.77
2017-04-17T03:20:12.501Z,23.32
2017-04-17T03:21:11.416Z,26.07
2017-04-17T03:22:10.329Z,23.35
2017-04-17T03:23:09.226Z,24.72
2017-04-17T03:24:08.137Z,22.63
2017-04-17T03:25:07.035Z,22.43
2017-04-17T03:26:05.935Z,22.25
2017-04-17T03:27:04.831Z,25.33
2017-04-17T03:28:03.744Z,25.97
2017-04-17T03:29:02.672Z,22.80
2017-04-17T03:30:01.611Z,21.45
2017-04-17T03:31:00.563Z,22.82
2017-04-17T03:31:59.499Z,23.48
2017-04-17T03:32:58.395Z,24.05
2017-04-17T03:33:57.304Z,21.90
2017-04-17T03:34:56.226Z,22.62
2017-04-17T03:35:55.165Z,24.67
2017-04-17T03:36:54.107Z,20.80
2017-04-17T03:37:53.004Z,22.07
2017-04-17T03:38:51.916Z,23.30
2017-04-17T03:39:50.819Z,22.38
2017-04-17T03:40:49.715Z,21.62
2017-04-17T03:41:48.671Z,22.38
2017-04-17T03:42:47.625Z,19.23
2017-04-17T03:43:46.519Z,20.46
2017-04-17T03:44:45.445Z,20.47
2017-04-17T03:45:44.331Z,19.20
2017-04-17T03:46:43.283Z,20.48
2017-04-17T03:47:42.224Z,19.87
2017-04-17T03:48:41.150Z,19.38
2017-04-17T03:49:40.059Z,19.52
2017-04-17T03:50:39.051Z,19.88
2017-04-17T03:51:37.957Z,18.70
2017-04-17T03:52:36.844Z,20.68
2017-04-17T03:53:35.793Z,19.98
2017-04-17T03:54:34.712Z,19.60
2017-04-17T03:55:33.627Z,17.18
2017-04-17T03:56:32.537Z,20.20
2017-04-17T03:57:31.431Z,17.25
2017-04-17T03:58:30.364Z,17.25
2017-04-17T03:59:29.292Z,19.52
2017-04-17T04:00:28.203Z,20.88
2017-04-17T04:01:27.124Z,20.12
2017-04-17T04:02:26.049Z,18.15
2017-04-17T04:03:25.711Z,19.73
2017-04-17T04:04:24.628Z,19.65
2017-04-17T04:05:23.548Z,19.57
2017-04-17T04:06:22.455Z,18.97
2017-04-17T04:07:21.359Z,21.77
2017-04-17T04:08:20.292Z,21.15
2017-04-17T04:09:19.213Z,21.78
2017-04-17T04:10:18.111Z,21.95
2017-04-17T04:11:17.174Z,20.88
2017-04-17T04:12:16.079Z,19.55
2017-04-17T04:13:14.979Z,20.15
2017-04-17T04:14:14.616Z,19.45
2017-04-17T04:15:13.515Z,19.17
2017-04-17T04:16:12.430Z,19.92
2017-04-17T04:17:12.076Z,18.43
2017-04-17T04:18:10.984Z,19.28
2017-04-17T04:19:09.933Z,17.77
2017-04-17T04:20:08.891Z,18.53
2017-04-17T04:21:07.771Z,19.95
2017-04-17T04:22:06.676Z,17.83
2017-04-17T04:23:05.643Z,17.90
2017-04-17T04:24:04.547Z,16.23
2017-04-17T04:25:03.495Z,17.77
2017-04-17T04:26:02.392Z,16.68
2017-04-17T04:27:01.300Z,16.87
2017-04-17T04:28:00.188Z,15.40
2017-04-17T04:28:59.111Z,16.35
2017-04-17T04:29:58.735Z,16.68
2017-04-17T04:30:57.629Z,18.75
2017-04-17T04:31:56.522Z,20.37
2017-04-17T04:32:55.399Z,17.68
2017-04-17T04:33:54.295Z,16.38
2017-04-17T04:34:53.247Z,15.92
2017-04-17T04:35:52.152Z,17.40
2017-04-17T04:36:51.048Z,16.68
2017-04-17T04:37:49.979Z,17.00
2017-04-17T04:38:48.859Z,17.58
2017-04-17T04:39:47.751Z,16.02
2017-04-17T04:40:46.707Z,15.25
2017-04-17T04:41:45.624Z,13.82
2017-04-17T04:42:44.561Z,15.08
2017-04-17T04:43:43.452Z,15.45
2017-04-17T04:44:42.358Z,15.05
2017-04-17T04:45:41.283Z,13.43
2017-04-17T04:46:40.192Z,14.15
2017-04-17T04:47:39.100Z,14.88
2017-04-17T04:48:38.098Z,13.97
2017-04-17T04:49:36.984Z,13.73
2017-04-17T04:50:35.919Z,14.42
2017-04-17T04:51:34.800Z,15.40
2017-04-17T04:52:33.739Z,15.22
2017-04-17T04:53:32.639Z,15.05
2017-04-17T04:54:32.279Z,14.57
2017-04-17T04:55:31.173Z,16.67
2017-04-17T04:56:30.103Z,14.12
2017-04-17T04:57:29.053Z,12.00
2017-04-17T04:58:27.973Z,11.82
2017-04-17T04:59:26.985Z,12.25
2017-04-17T05:00:25.859Z,12.85
2017-04-17T05:01:24.751Z,13.50
2017-04-17T05:02:23.653Z,12.28
2017-04-17T05:03:22.586Z,13.03
2017-04-17T05:04:21.487Z,12.05
2017-04-17T05:05:20.386Z,12.45
2017-04-17T05:06:19.276Z,11.43
2017-04-17T05:07:18.182Z,13.65
2017-04-17T05:08:17.803Z,11.17
2017-04-17T05:09:16.698Z,11.57
2017-04-17T05:10:15.621Z,12.25
2017-04-17T05:11:14.541Z,12.48
2017-04-17T05:12:13.453Z,13.70
2017-04-17T05:13:12.339Z,15.18
2017-04-17T05:14:11.235Z,14.87
2017-04-17T05:15:10.164Z,14.77
2017-04-17T05:16:09.096Z,15.20
2017-04-17T05:17:08.011Z,15.92
2017-04-17T05:18:07.663Z,15.68
2017-04-17T05:19:06.572Z,15.80
2017-04-17T05:20:05.479Z,15.75
2017-04-17T05:21:04.372Z,15.02
2017-04-17T05:22:03.702Z,12.90
2017-04-17T05:23:02.642Z,12.93
2017-04-17T05:24:01.568Z,13.20
2017-04-17T05:25:00.469Z,14.60
2017-04-17T05:26:00.132Z,11.57
2017-04-17T05:26:59.015Z,13.20
2017-04-17T05:27:57.943Z,13.15
2017-04-17T05:28:57.563Z,11.60
2017-04-17T05:29:56.523Z,12.45
2017-04-17T05:30:55.495Z,11.90
2017-04-17T05:31:54.425Z,13.28
2017-04-17T05:32:53.336Z,10.00
2017-04-17T05:33:53.292Z,13.42
2017-04-17T05:34:52.187Z,10.25
2017-04-17T05:35:51.076Z,9.30
2017-04-17T05:36:49.983Z,9.47
2017-04-17T05:37:48.908Z,9.10
2017-04-17T05:38:47.824Z,9.12
2017-04-17T05:39:46.745Z,7.67
2017-04-17T05:40:45.647Z,11.98
2017-04-17T05:41:44.632Z,10.47
2017-04-17T05:42:43.534Z,8.63
2017-04-17T05:43:42.422Z,7.88
2017-04-17T05:44:41.309Z,7.92
2017-04-17T05:45:40.207Z,9.13
2017-04-17T05:46:39.120Z,8.78
2017-04-17T05:47:38.756Z,8.57
2017-04-17T05:48:37.675Z,8.47
2017-04-17T05:49:36.603Z,7.43
2017-04-17T05:50:35.505Z,7.75
2017-04-17T05:51:34.420Z,9.50
2017-04-17T05:52:33.320Z,7.67
2017-04-17T05:53:32.952Z,9.03
2017-04-17T05:54:31.829Z,7.58
2017-04-17T05:55:30.730Z,7.65
2017-04-17T05:56:29.603Z,7.48
2017-04-17T05:57:28.496Z,8.45
2017-04-17T05:58:27.368Z,5.93
2017-04-17T05:59:26.262Z,6.68
2017-04-17T06:00:25.172Z,6.48
2017-04-17T06:01:24.060Z,6.22
2017-04-17T06:02:23.691Z,6.00
2017-04-17T06:03:22.664Z,9.18
2017-04-17T06:04:21.557Z,7.23
2017-04-17T06:05:20.735Z,5.62
2017-04-17T06:06:19.633Z,5.63
2017-04-17T06:07:18.540Z,5.88
2017-04-17T06:08:17.448Z,6.02
2017-04-17T06:09:17.116Z,8.83
2017-04-17T06:10:16.038Z,4.85
2017-04-17T06:11:15.679Z,6.77
2017-04-17T06:12:14.587Z,5.80
2017-04-17T06:13:13.484Z,4.78
2017-04-17T06:14:12.375Z,4.10
2017-04-17T06:15:12.039Z,5.62
2017-04-17T06:16:11.419Z,4.34
2017-04-17T06:17:10.345Z,5.17
2017-04-17T06:18:09.963Z,5.28
2017-04-17T06:19:08.859Z,5.68
2017-04-17T06:20:07.783Z,7.23
2017-04-17T06:21:06.720Z,5.13
2017-04-17T06:22:05.625Z,5.85
2017-04-17T06:23:04.508Z,5.55
2017-04-17T06:24:03.427Z,5.78
2017-04-17T06:25:03.067Z,4.87
2017-04-17T06:26:01.959Z,5.02
2017-04-17T06:27:00.864Z,4.97
2017-04-17T06:27:59.815Z,4.25
2017-04-17T06:28:58.811Z,5.92
2017-04-17T06:29:57.705Z,5.83
2017-04-17T06:30:56.677Z,6.50
2017-04-17T06:31:55.585Z,3.70
2017-04-17T06:32:54.507Z,4.43
2017-04-17T06:33:53.399Z,4.02
2017-04-17T06:34:52.296Z,5.12
2017-04-17T06:35:51.194Z,5.83
2017-04-17T06:36:50.108Z,4.15
2017-04-17T06:37:49.011Z,4.00
2017-04-17T06:38:48.054Z,5.87
2017-04-17T06:39:47.711Z,4.23
2017-04-17T06:40:47.107Z,5.00
2017-04-17T06:41:46.036Z,5.73
2017-04-17T06:42:44.961Z,4.70
2017-04-17T06:43:43.855Z,4.53
2017-04-17T06:44:42.771Z,4.77
2017-04-17T06:45:41.716Z,6.03
2017-04-17T06:46:40.630Z,6.48
2017-04-17T06:47:39.535Z,4.20
2017-04-17T06:48:38.460Z,6.05
2017-04-17T06:49:37.371Z,3.92
2017-04-17T06:50:36.356Z,5.52
2017-04-17T06:51:35.257Z,5.15
2017-04-17T06:52:34.151Z,4.72
2017-04-17T06:53:33.277Z,5.53
2017-04-17T06:54:32.195Z,4.08
2017-04-17T06:55:32.051Z,6.05
2017-04-17T06:56:31.027Z,2.95
2017-04-17T06:57:29.944Z,4.75
2017-04-17T06:58:28.824Z,3.95
2017-04-17T06:59:27.729Z,5.18
2017-04-17T07:00:26.643Z,5.97
2017-04-17T07:01:25.543Z,6.35
2017-04-17T07:02:26.507Z,4.32
2017-04-17T07:03:26.148Z,4.17
2017-04-17T07:04:25.037Z,4.50
2017-04-17T07:05:24.686Z,5.02
2017-04-17T07:06:23.587Z,5.37
2017-04-17T07:07:22.508Z,4.63
2017-04-17T07:08:21.483Z,5.67
2017-04-17T07:09:20.379Z,5.75
2017-04-17T07:10:19.282Z,5.98
2017-04-17T07:11:18.218Z,4.98
2017-04-17T07:12:17.120Z,4.42
2017-04-17T07:13:15.998Z,4.30
2017-04-17T07:14:14.973Z,5.00
2017-04-17T07:15:13.943Z,6.72
2017-04-17T07:16:12.856Z,4.12
2017-04-17T07:17:11.819Z,5.62
2017-04-17T07:18:10.759Z,6.40
2017-04-17T07:19:09.668Z,5.13
2017-04-17T07:20:08.610Z,6.32
2017-04-17T07:21:07.519Z,3.35
2017-04-17T07:22:06.444Z,4.67
2017-04-17T07:23:05.364Z,4.08
2017-04-17T07:24:04.399Z,4.20
2017-04-17T07:25:03.327Z,4.57
2017-04-17T07:26:02.244Z,4.40
2017-04-17T07:27:01.146Z,5.63
2017-04-17T07:28:00.060Z,5.43
2017-04-17T07:28:59.689Z,3.57
2017-04-17T07:29:58.597Z,3.82
2017-04-17T07:30:57.530Z,4.73
2017-04-17T07:31:56.463Z,4.40
2017-04-17T07:32:55.374Z,5.18
2017-04-17T07:33:54.288Z,3.03
2017-04-17T07:34:53.215Z,4.80
2017-04-17T07:35:52.871Z,4.32
2017-04-17T07:36:51.775Z,3.88
2017-04-17T07:37:50.758Z,3.80
2017-04-17T07:38:49.699Z,3.68
2017-04-17T07:39:48.627Z,5.12
2017-04-17T07:40:47.547Z,4.72
2017-04-17T07:41:46.456Z,4.55
2017-04-17T07:42:45.533Z,3.67
2017-04-17T07:43:44.462Z,3.50
2017-04-17T07:44:43.363Z,7.68
2017-04-17T07:45:43.040Z,5.40
2017-04-17T07:46:41.952Z,5.12
2017-04-17T07:47:40.880Z,4.52
2017-04-17T07:48:39.795Z,5.10
2017-04-17T07:49:38.720Z,4.97
2017-04-17T07:50:37.629Z,4.06
2017-04-17T07:51:36.552Z,4.67
2017-04-17T07:52:36.191Z,5.35
2017-04-17T07:53:35.105Z,4.95
2017-04-17T07:54:34.003Z,4.80
2017-04-17T07:55:33.651Z,4.90
2017-04-17T07:56:32.582Z,5.80
2017-04-17T07:57:32.375Z,4.10
2017-04-17T07:58:31.287Z,5.45
2017-04-17T07:59:30.179Z,5.00
2017-04-17T08:00:29.075Z,3.85
2017-04-17T08:01:27.999Z,3.85
2017-04-17T08:02:26.947Z,4.92
2017-04-17T08:03:25.881Z,6.37
2017-04-17T08:04:25.021Z,4.90
2017-04-17T08:05:23.946Z,6.43
2017-04-17T08:06:23.585Z,4.85
2017-04-17T08:07:22.555Z,3.98
2017-04-17T08:08:21.460Z,5.95
2017-04-17T08:09:20.424Z,3.78
2017-04-17T08:10:19.374Z,5.02
2017-04-17T08:11:18.298Z,5.70
2017-04-17T08:12:17.215Z,4.73
2017-04-17T08:13:16.153Z,4.42
2017-04-17T08:14:15.052Z,6.53
2017-04-17T08:15:13.969Z,3.17
2017-04-17T08:16:13.605Z,5.12
2017-04-17T08:17:12.509Z,6.18
2017-04-17T08:18:11.487Z,5.33
2017-04-17T08:19:10.424Z,3.63
2017-04-17T08:20:09.332Z,6.28
2017-04-17T08:21:08.238Z,4.62
2017-04-17T08:22:07.151Z,4.68
2017-04-17T08:23:06.051Z,5.12
2017-04-17T08:24:04.987Z,3.52
2017-04-17T08:25:03.911Z,4.90
2017-04-17T08:26:02.940Z,5.87
2017-04-17T08:27:01.917Z,4.82
2017-04-17T08:28:00.877Z,4.37
2017-04-17T08:28:59.827Z,5.97
2017-04-17T08:29:59.496Z,4.80
2017-04-17T08:30:58.401Z,3.97
2017-04-17T08:31:58.031Z,4.70
2017-04-17T08:32:57.002Z,4.80
2017-04-17T08:33:55.877Z,5.52
2017-04-17T08:34:54.814Z,4.30
2017-04-17T08:35:53.712Z,4.35
2017-04-17T08:36:53.087Z,3.38
2017-04-17T08:37:52.027Z,3.63
2017-04-17T08:38:50.943Z,4.17
2017-04-17T08:39:49.848Z,3.73
2017-04-17T08:40:48.744Z,3.75
2017-04-17T08:41:47.653Z,3.73
2017-04-17T08:42:46.607Z,4.07
2017-04-17T08:43:46.247Z,2.72
2017-04-17T08:44:45.179Z,3.57
2017-04-17T08:45:44.814Z,4.13
2017-04-17T08:46:43.739Z,5.33
2017-04-17T08:47:42.692Z,5.35
2017-04-17T08:48:41.607Z,5.37
2017-04-17T08:49:40.475Z,2.88
2017-04-17T08:50:39.552Z,3.13
2017-04-17T08:51:38.481Z,2.40
2017-04-17T08:52:37.364Z,3.67
2017-04-17T08:53:36.319Z,3.22
2017-04-17T08:54:35.251Z,3.55
2017-04-17T08:55:34.169Z,2.38
2017-04-17T08:56:33.052Z,3.85
2017-04-17T08:57:32.527Z,4.40
2017-04-17T08:58:31.491Z,3.15
2017-04-17T08:59:30.453Z,2.92
2017-04-17T09:00:29.370Z,4.08
2017-04-17T09:01:28.299Z,4.80
2017-04-17T09:02:27.943Z,4.88
2017-04-17T09:03:26.851Z,4.30
2017-04-17T09:04:25.756Z,2.77
2017-04-17T09:05:25.518Z,5.40
2017-04-17T09:06:24.467Z,3.80
2017-04-17T09:07:23.382Z,2.92
2017-04-17T09:08:22.320Z,5.53
2017-04-17T09:09:21.219Z,3.05
2017-04-17T09:10:20.172Z,3.07
2017-04-17T09:11:19.207Z,3.28
2017-04-17T09:12:18.143Z,4.30
2017-04-17T09:13:17.040Z,4.25
2017-04-17T09:14:15.943Z,3.50
2017-04-17T09:15:14.889Z,3.05
2017-04-17T09:16:13.915Z,3.22
2017-04-17T09:17:12.834Z,4.08
2017-04-17T09:18:11.812Z,3.83
2017-04-17T09:19:10.727Z,3.73
2017-04-17T09:20:09.701Z,4.34
2017-04-17T09:21:08.596Z,2.87
2017-04-17T09:22:07.507Z,2.85
2017-04-17T09:23:06.403Z,4.80
2017-04-17T09:24:06.099Z,4.60
2017-04-17T09:25:04.995Z,1.70
2017-04-17T09:26:03.886Z,4.52
2017-04-17T09:27:03.535Z,3.18
2017-04-17T09:28:02.411Z,3.37
2017-04-17T09:29:01.292Z,4.18
2017-04-17T09:30:00.230Z,3.73
2017-04-17T09:30:59.111Z,2.65
2017-04-17T09:31:58.007Z,4.07
2017-04-17T09:32:56.923Z,4.85
2017-04-17T09:33:55.825Z,2.70
2017-04-17T09:34:54.743Z,2.83
2017-04-17T09:35:53.880Z,3.45
2017-04-17T09:36:52.852Z,4.97
2017-04-17T09:37:51.914Z,2.75
2017-04-17T09:38:50.839Z,2.95
2017-04-17T09:39:49.749Z,2.92
2017-04-17T09:40:48.644Z,2.87
2017-04-17T09:41:47.547Z,5.88
2017-04-17T09:42:46.480Z,4.06
2017-04-17T09:43:46.124Z,3.00
2017-04-17T09:44:45.011Z,3.85
2017-04-17T09:45:43.903Z,3.62
2017-04-17T09:46:42.816Z,5.50
2017-04-17T09:47:42.510Z,2.95
2017-04-17T09:48:41.425Z,3.86
2017-04-17T09:49:40.331Z,3.52
2017-04-17T09:50:39.239Z,3.12
2017-04-17T09:51:38.118Z,4.00
2017-04-17T09:52:37.132Z,4.05
2017-04-17T09:53:37.931Z,3.08
2017-04-17T09:54:38.567Z,4.17
2017-04-17T09:55:38.943Z,5.67
2017-04-17T09:56:38.975Z,4.95
2017-04-17T09:57:39.010Z,5.62
2017-04-17T09:58:39.158Z,3.17
2017-04-17T09:59:39.828Z,2.37
2017-04-17T10:00:39.594Z,4.02
2017-04-17T10:01:39.909Z,6.42
2017-04-17T10:02:39.944Z,4.18
2017-04-17T10:03:40.287Z,5.30
2017-04-17T10:04:40.814Z,4.38
2017-04-17T10:05:40.744Z,5.02
2017-04-17T10:06:41.191Z,4.00
2017-04-17T10:07:42.236Z,2.83
2017-04-17T10:08:42.630Z,2.73
2017-04-17T10:09:42.520Z,3.10
2017-04-17T10:10:43.315Z,4.55
2017-04-17T10:11:43.387Z,4.82
2017-04-17T10:12:43.528Z,3.18
2017-04-17T10:13:43.698Z,2.72
2017-04-17T10:14:43.840Z,3.92
2017-04-17T10:15:44.266Z,3.35
2017-04-17T10:16:44.146Z,2.70
2017-04-17T10:17:44.883Z,3.55
2017-04-17T10:18:45.409Z,4.12
2017-04-17T10:19:45.647Z,4.07
2017-04-17T10:20:46.173Z,4.85
2017-04-17T10:21:45.976Z,4.42
2017-04-17T10:22:47.378Z,5.04
2017-04-17T10:23:47.585Z,4.52
2017-04-17T10:24:47.613Z,4.23
2017-04-17T10:25:48.116Z,5.83
2017-04-17T10:26:48.567Z,4.85
2017-04-17T10:27:48.813Z,3.87
2017-04-17T10:28:49.791Z,4.00
2017-04-17T10:29:51.148Z,3.70
2017-04-17T10:30:51.474Z,4.60
2017-04-17T10:31:51.981Z,3.50
2017-04-17T10:32:53.154Z,3.70
2017-04-17T10:33:53.704Z,4.22
2017-04-17T10:34:53.235Z,4.27
2017-04-17T10:35:53.132Z,4.68
2017-04-17T10:36:53.033Z,3.52
2017-04-17T10:37:52.738Z,4.02
2017-04-17T10:38:52.976Z,4.37
2017-04-17T10:39:52.779Z,4.00
2017-04-17T10:40:53.067Z,4.83
2017-04-17T10:41:53.246Z,2.63
2017-04-17T10:42:53.941Z,4.08
2017-04-17T10:43:54.578Z,3.55
2017-04-17T10:44:55.386Z,2.87
2017-04-17T10:45:55.388Z,2.67
2017-04-17T10:46:55.251Z,4.02
2017-04-17T10:47:55.625Z,3.18
2017-04-17T10:48:56.410Z,2.50
2017-04-17T10:49:56.578Z,4.93
2017-04-17T10:50:57.668Z,4.62
2017-04-17T10:51:57.944Z,3.88
2017-04-17T10:52:57.718Z,2.48
2017-04-17T10:53:57.979Z,3.22
2017-04-17T10:54:58.652Z,3.38
2017-04-17T10:55:58.761Z,2.83
2017-04-17T10:56:59.058Z,3.25
2017-04-17T10:57:58.702Z,5.42
2017-04-17T10:58:58.992Z,6.23
2017-04-17T10:59:59.535Z,2.10
2017-04-17T11:00:59.704Z,4.70
2017-04-17T11:02:00.056Z,3.48
2017-04-17T11:02:59.749Z,3.77
2017-04-17T11:03:58.700Z,4.88
2017-04-17T11:04:57.626Z,3.00
2017-04-17T11:05:56.563Z,4.55
2017-04-17T11:06:55.482Z,4.35
2017-04-17T11:07:54.387Z,2.13
2017-04-17T11:08:53.279Z,4.10
2017-04-17T11:09:52.931Z,2.27
2017-04-17T11:10:51.828Z,2.73
2017-04-17T11:11:50.768Z,3.20
2017-04-17T11:12:49.663Z,3.85
2017-04-17T11:13:48.556Z,2.88
2017-04-17T11:14:47.528Z,3.13
2017-04-17T11:15:46.471Z,3.93
2017-04-17T11:16:46.156Z,2.68
2017-04-17T11:17:45.142Z,4.23
2017-04-17T11:18:44.196Z,4.07
2017-04-17T11:19:43.112Z,2.90
2017-04-17T11:20:42.743Z,2.40
2017-04-17T11:21:41.686Z,3.05
2017-04-17T11:22:40.623Z,2.33
2017-04-17T11:23:39.539Z,2.43
2017-04-17T11:24:38.438Z,2.48
2017-04-17T11:25:37.423Z,4.40
2017-04-17T11:26:37.061Z,3.65
2017-04-17T11:27:36.027Z,2.37
2017-04-17T11:28:35.098Z,2.23
2017-04-17T11:29:33.994Z,2.03
2017-04-17T11:30:32.900Z,2.42
2017-04-17T11:31:31.820Z,1.92
2017-04-17T11:32:30.772Z,3.42
2017-04-17T11:33:29.647Z,2.73
2017-04-17T11:34:28.551Z,3.70
2017-04-17T11:35:27.475Z,2.20
2017-04-17T11:36:26.391Z,2.42
2017-04-17T11:37:25.320Z,3.80
2017-04-17T11:38:24.256Z,2.80
2017-04-17T11:39:23.236Z,2.30
2017-04-17T11:40:22.135Z,2.50
2017-04-17T11:41:21.200Z,3.27
2017-04-17T11:42:20.127Z,3.30
2017-04-17T11:44:58.912Z,3.82
2017-04-17T11:45:57.842Z,3.13
2017-04-17T11:46:56.752Z,3.27
2017-04-17T11:47:55.656Z,2.43
2017-04-17T11:48:54.608Z,4.18
2017-04-17T11:49:53.508Z,4.27
2017-04-17T11:50:52.430Z,4.35
2017-04-17T11:51:51.335Z,2.97
2017-04-17T11:52:50.279Z,3.02
2017-04-17T11:53:49.197Z,3.05
2017-04-17T11:54:48.109Z,2.95
2017-04-17T11:55:47.016Z,3.90
2017-04-17T11:56:46.694Z,2.22
2017-04-17T11:57:45.600Z,3.12
2017-04-17T11:58:44.672Z,3.35
2017-04-17T11:59:43.571Z,2.60
2017-04-17T12:00:42.487Z,3.10
2017-04-17T12:01:41.435Z,2.70
2017-04-17T12:02:41.097Z,3.08
2017-04-17T12:03:39.996Z,4.18
2017-04-17T12:04:38.944Z,3.22
2017-04-17T12:05:37.852Z,2.67
2017-04-17T12:06:36.901Z,1.95
2017-04-17T12:07:35.884Z,2.35
2017-04-17T12:08:34.828Z,2.55
2017-04-17T12:09:33.739Z,2.50
2017-04-17T12:10:32.695Z,2.82
2017-04-17T12:11:32.331Z,3.20
2017-04-17T12:12:31.435Z,2.72
2017-04-17T12:13:30.410Z,3.63
2017-04-17T12:14:29.338Z,2.48
2017-04-17T12:15:28.248Z,3.08
2017-04-17T12:16:27.199Z,3.92
2017-04-17T12:17:26.877Z,1.60
2017-04-17T12:18:25.814Z,2.92
2017-04-17T12:19:24.783Z,2.80
2017-04-17T12:20:23.765Z,2.27
2017-04-17T12:21:22.707Z,2.05
2017-04-17T12:22:21.666Z,1.55
2017-04-17T12:23:20.678Z,3.87
2017-04-17T12:24:19.657Z,2.87
2017-04-17T12:25:18.625Z,3.00
2017-04-17T12:26:17.552Z,2.70
2017-04-17T12:27:16.542Z,2.97
2017-04-17T12:28:15.462Z,1.60
2017-04-17T12:29:14.466Z,2.50
2017-04-17T12:30:14.112Z,3.57
2017-04-17T12:31:13.246Z,2.17
2017-04-17T12:32:12.148Z,3.90
2017-04-17T12:33:11.800Z,2.00
2017-04-17T12:34:10.732Z,2.17
2017-04-17T12:35:09.639Z,2.00
2017-04-17T12:36:08.657Z,2.30
2017-04-17T12:37:07.742Z,1.78
2017-04-17T12:38:06.639Z,2.14
2017-04-17T12:39:06.496Z,2.33
2017-04-17T12:40:05.437Z,2.40
2017-04-17T12:41:04.353Z,3.50
2017-04-17T12:42:03.323Z,4.13
2017-04-17T12:43:02.232Z,1.90
2017-04-17T12:44:01.155Z,2.87
2017-04-17T12:45:00.078Z,2.77
2017-04-17T12:45:59.088Z,2.42
2017-04-17T12:46:58.012Z,1.93
2017-04-17T12:47:57.662Z,2.60
2017-04-17T12:48:56.593Z,1.83
2017-04-17T12:49:56.551Z,4.65
2017-04-17T12:50:55.483Z,1.63
2017-04-17T12:51:54.443Z,2.08
2017-04-17T12:52:53.340Z,1.98
2017-04-17T12:53:53.030Z,2.27
2017-04-17T12:54:51.992Z,1.73
2017-04-17T12:55:50.901Z,1.83
2017-04-17T12:56:50.553Z,2.98
2017-04-17T12:57:49.493Z,1.40